createdAt,value
2023-03-29T00:00:31.978Z,16.29
2023-03-29T00:02:59.563Z,16.12
2023-03-29T00:05:26.700Z,15.85
2023-03-29T00:07:54.465Z,15.87
2023-03-29T00:10:24.248Z,15.97
2023-03-29T00:12:52.704Z,15.99
2023-03-29T00:15:21.210Z,16.17
2023-03-29T00:17:48.760Z,16.09
2023-03-29T00:20:16.805Z,15.88
2023-03-29T00:22:48.585Z,15.92
2023-03-29T00:25:16.586Z,15.97
2023-03-29T00:27:43.678Z,15.94
2023-03-29T00:30:11.586Z,15.70
2023-03-29T00:32:39.232Z,15.93
2023-03-29T00:35:07.723Z,15.58
2023-03-29T00:37:35.180Z,15.72
2023-03-29T00:40:02.572Z,15.71
2023-03-29T00:42:33.236Z,15.42
2023-03-29T00:45:21.484Z,15.55
2023-03-29T00:47:57.278Z,15.66
2023-03-29T00:50:29.865Z,15.68
2023-03-29T00:53:04.958Z,15.58
2023-03-29T00:55:44.724Z,15.39
2023-03-29T00:58:15.994Z,15.31
2023-03-29T01:00:52.468Z,15.52
2023-03-29T01:03:27.615Z,15.51
2023-03-29T01:06:05.473Z,15.19
2023-03-29T01:08:39.908Z,15.15
2023-03-29T01:11:31.055Z,15.26
2023-03-29T01:14:05.705Z,15.30
2023-03-29T01:16:38.461Z,15.18
2023-03-29T01:19:09.044Z,15.25
2023-03-29T01:21:49.543Z,15.30
2023-03-29T01:24:46.148Z,15.38
2023-03-29T01:27:23.648Z,15.25
2023-03-29T01:29:57.481Z,14.88
2023-03-29T01:32:35.636Z,14.64
2023-03-29T01:35:10.753Z,14.19
2023-03-29T01:37:44.212Z,14.15
2023-03-29T01:40:12.371Z,14.40
2023-03-29T01:42:50.022Z,14.35
2023-03-29T01:45:31.508Z,14.66
2023-03-29T01:48:25.419Z,14.74
2023-03-29T01:50:56.025Z,14.99
2023-03-29T01:53:30.603Z,14.96
2023-03-29T01:56:05.230Z,14.70
2023-03-29T01:58:35.855Z,14.60
2023-03-29T02:01:06.083Z,14.52
2023-03-29T02:03:34.860Z,14.26
2023-03-29T02:06:05.486Z,14.40
2023-03-29T02:08:33.150Z,14.58
2023-03-29T02:11:01.633Z,14.30
2023-03-29T02:13:29.286Z,13.95
2023-03-29T02:15:56.817Z,13.76
2023-03-29T02:18:24.832Z,13.58
2023-03-29T02:20:53.220Z,13.49
2023-03-29T02:23:28.980Z,13.41
2023-03-29T02:25:57.248Z,13.18
2023-03-29T02:28:27.190Z,13.12
2023-03-29T02:31:06.546Z,12.93
2023-03-29T02:33:35.614Z,12.74
2023-03-29T02:36:15.857Z,12.69
2023-03-29T02:38:45.099Z,12.35
2023-03-29T02:41:13.172Z,12.02
2023-03-29T02:43:42.834Z,11.93
2023-03-29T02:46:12.650Z,12.10
2023-03-29T02:48:41.059Z,12.01
2023-03-29T02:51:19.429Z,12.28
2023-03-29T02:53:53.509Z,12.05
2023-03-29T02:56:21.227Z,11.93
2023-03-29T02:58:48.640Z,11.94
2023-03-29T03:01:17.890Z,11.87
2023-03-29T03:03:45.525Z,11.76
2023-03-29T03:06:13.646Z,11.84
2023-03-29T03:08:40.827Z,11.76
2023-03-29T03:11:08.638Z,12.00
2023-03-29T03:13:35.844Z,11.87
2023-03-29T03:16:03.417Z,12.10
2023-03-29T03:18:30.737Z,12.28
2023-03-29T03:21:01.916Z,11.99
2023-03-29T03:23:29.682Z,12.22
2023-03-29T03:25:57.422Z,12.25
2023-03-29T03:28:27.479Z,12.33
2023-03-29T03:30:55.755Z,12.01
2023-03-29T03:33:27.192Z,12.03
2023-03-29T03:36:13.394Z,11.79
2023-03-29T03:38:44.269Z,11.91
2023-03-29T03:41:11.825Z,12.14
2023-03-29T03:43:41.624Z,12.36
2023-03-29T03:46:09.479Z,12.51
2023-03-29T03:48:37.373Z,12.24
2023-03-29T03:51:17.987Z,12.61
2023-03-29T03:53:45.200Z,12.74
2023-03-29T03:56:13.560Z,12.47
2023-03-29T03:59:07.430Z,12.71
2023-03-29T04:01:43.911Z,12.99
2023-03-29T04:04:20.555Z,13.29
2023-03-29T04:07:03.323Z,13.53
2023-03-29T04:09:37.758Z,13.53
2023-03-29T04:12:25.878Z,13.43
2023-03-29T04:14:53.175Z,13.40
2023-03-29T04:17:24.660Z,13.23
2023-03-29T04:19:58.269Z,13.15
2023-03-29T04:22:28.337Z,13.10
2023-03-29T04:24:55.491Z,13.21
2023-03-29T04:27:58.507Z,13.35
2023-03-29T04:30:45.372Z,13.03
2023-03-29T04:33:47.814Z,12.96
2023-03-29T04:36:16.203Z,13.02
2023-03-29T04:38:47.412Z,13.33
2023-03-29T04:41:16.189Z,13.72
2023-03-29T04:44:03.700Z,13.69
2023-03-29T04:46:32.809Z,13.92
2023-03-29T04:49:06.377Z,14.06
2023-03-29T04:51:37.589Z,14.03
2023-03-29T04:54:05.528Z,14.29
2023-03-29T04:56:45.664Z,14.44
2023-03-29T04:59:33.377Z,14.38
2023-03-29T05:02:05.082Z,14.44
2023-03-29T05:04:33.164Z,14.28
2023-03-29T05:07:10.344Z,14.32
2023-03-29T05:09:37.837Z,14.35
2023-03-29T05:12:06.654Z,14.26
2023-03-29T05:14:46.105Z,14.52
2023-03-29T05:17:13.416Z,14.52
2023-03-29T05:19:40.978Z,14.57
2023-03-29T05:22:09.288Z,14.42
2023-03-29T05:24:37.585Z,14.20
2023-03-29T05:27:14.602Z,14.35
2023-03-29T05:29:44.916Z,14.36
2023-03-29T05:32:37.585Z,14.39
2023-03-29T05:35:06.265Z,13.85
2023-03-29T05:37:35.231Z,13.59
2023-03-29T05:40:10.374Z,13.58
2023-03-29T05:43:02.742Z,13.49
2023-03-29T05:45:30.273Z,13.31
2023-03-29T05:47:58.026Z,13.49
2023-03-29T05:50:25.752Z,13.76
2023-03-29T05:52:53.327Z,13.33
2023-03-29T05:55:20.546Z,13.25
2023-03-29T05:57:47.840Z,13.07
2023-03-29T06:00:25.838Z,13.26
2023-03-29T06:03:14.112Z,13.67
2023-03-29T06:05:49.962Z,13.62
2023-03-29T06:08:18.454Z,13.58
2023-03-29T06:11:06.345Z,13.48
2023-03-29T06:13:53.113Z,13.43
2023-03-29T06:16:20.725Z,13.37
2023-03-29T06:18:48.164Z,13.47
2023-03-29T06:21:15.570Z,13.86
2023-03-29T06:23:43.187Z,13.98
2023-03-29T06:26:11.094Z,14.29
2023-03-29T06:28:39.361Z,13.82
2023-03-29T06:31:06.896Z,13.19
2023-03-29T06:33:38.732Z,13.02
2023-03-29T06:36:29.012Z,12.42
2023-03-29T06:38:56.356Z,12.50
2023-03-29T06:41:44.404Z,12.45
2023-03-29T06:44:24.161Z,12.58
2023-03-29T06:47:00.683Z,12.66
2023-03-29T06:49:28.333Z,12.91
2023-03-29T06:52:06.177Z,12.59
2023-03-29T06:54:33.820Z,12.45
2023-03-29T06:57:04.850Z,12.35
2023-03-29T06:59:35.104Z,12.40
2023-03-29T07:02:16.849Z,12.35
2023-03-29T07:04:56.781Z,12.38
2023-03-29T07:07:44.114Z,12.25
2023-03-29T07:10:32.950Z,11.86
2023-03-29T07:13:23.826Z,11.55
2023-03-29T07:15:53.146Z,11.68
2023-03-29T07:18:44.454Z,11.92
2023-03-29T07:21:17.731Z,11.63
2023-03-29T07:23:47.467Z,11.21
2023-03-29T07:26:28.454Z,11.45
2023-03-29T07:28:56.592Z,11.27
2023-03-29T07:31:23.937Z,10.89
2023-03-29T07:33:56.864Z,10.65
2023-03-29T07:36:28.696Z,10.72
2023-03-29T07:38:57.253Z,10.45
2023-03-29T07:41:25.522Z,10.59
2023-03-29T07:44:06.601Z,10.88
2023-03-29T07:46:33.697Z,11.34
2023-03-29T07:49:00.952Z,11.63
2023-03-29T07:51:28.514Z,12.07
2023-03-29T07:54:05.541Z,12.39
2023-03-29T07:56:41.694Z,12.40
2023-03-29T07:59:17.835Z,12.52
2023-03-29T08:01:50.465Z,12.64
2023-03-29T08:04:31.997Z,12.95
2023-03-29T08:07:21.390Z,12.97
2023-03-29T08:10:09.957Z,12.91
2023-03-29T08:13:12.538Z,12.69
2023-03-29T08:15:52.077Z,12.96
2023-03-29T08:18:27.112Z,13.05
2023-03-29T08:20:54.211Z,13.22
2023-03-29T08:23:21.450Z,13.00
2023-03-29T08:25:52.282Z,12.76
2023-03-29T08:28:19.700Z,12.58
2023-03-29T08:30:51.151Z,12.65
2023-03-29T08:33:18.883Z,12.68
2023-03-29T08:35:51.743Z,12.48
2023-03-29T08:38:22.821Z,12.44
2023-03-29T08:40:52.103Z,12.76
2023-03-29T08:43:40.919Z,13.28
2023-03-29T08:46:39.725Z,13.47
2023-03-29T08:49:23.592Z,13.57
2023-03-29T08:52:01.467Z,13.64
2023-03-29T08:54:41.333Z,13.91
2023-03-29T08:57:25.862Z,13.85
2023-03-29T09:00:02.028Z,13.95
2023-03-29T09:02:36.126Z,14.04
2023-03-29T09:05:10.450Z,14.38
2023-03-29T09:07:42.326Z,14.05
2023-03-29T09:10:16.515Z,13.98
2023-03-29T09:13:04.196Z,14.03
2023-03-29T09:15:48.701Z,13.81
2023-03-29T09:19:17.498Z,13.84
2023-03-29T09:21:54.587Z,13.61
2023-03-29T09:25:02.139Z,13.45
2023-03-29T09:27:35.258Z,13.10
2023-03-29T09:30:34.806Z,13.16
2023-03-29T09:33:22.198Z,12.88
2023-03-29T09:36:18.895Z,13.01
2023-03-29T09:38:51.250Z,13.01
2023-03-29T09:41:26.818Z,13.44
2023-03-29T09:43:57.701Z,13.35
2023-03-29T09:46:45.249Z,13.05
2023-03-29T09:49:17.750Z,13.09
2023-03-29T09:51:49.652Z,13.08
2023-03-29T09:54:21.059Z,12.81
2023-03-29T09:57:19.598Z,12.96
2023-03-29T09:59:49.768Z,12.87
2023-03-29T10:02:20.170Z,12.79
2023-03-29T10:04:55.807Z,13.02
2023-03-29T10:07:23.752Z,12.88
2023-03-29T10:09:56.968Z,12.50
2023-03-29T10:12:24.991Z,12.19
2023-03-29T10:14:54.402Z,12.12
2023-03-29T10:17:28.263Z,12.33
2023-03-29T10:20:04.492Z,12.22
2023-03-29T10:22:41.278Z,12.54
2023-03-29T10:25:17.575Z,12.41
2023-03-29T10:27:48.218Z,12.25
2023-03-29T10:30:24.375Z,12.41
2023-03-29T10:33:01.285Z,12.50
2023-03-29T10:35:38.340Z,12.42
2023-03-29T10:38:10.709Z,12.24
2023-03-29T10:40:47.518Z,12.59
2023-03-29T10:43:17.477Z,12.75
2023-03-29T10:45:47.344Z,12.92
2023-03-29T10:48:16.328Z,12.40
2023-03-29T10:50:49.738Z,12.01
2023-03-29T10:53:27.760Z,11.42
2023-03-29T10:56:39.234Z,11.16
2023-03-29T10:59:28.680Z,10.82
2023-03-29T11:02:14.432Z,10.68
2023-03-29T11:05:00.368Z,10.37
2023-03-29T11:07:52.336Z,10.82
2023-03-29T11:10:43.313Z,11.12
2023-03-29T11:13:22.553Z,11.29
2023-03-29T11:16:11.053Z,11.37
2023-03-29T11:18:41.363Z,11.66
2023-03-29T11:21:23.719Z,11.44
2023-03-29T11:24:18.503Z,11.15
2023-03-29T11:27:16.212Z,11.10
2023-03-29T11:29:58.826Z,11.23
2023-03-29T11:32:49.181Z,11.18
2023-03-29T11:35:38.114Z,11.31
2023-03-29T11:38:32.439Z,11.27
2023-03-29T11:41:06.109Z,11.28
2023-03-29T11:43:33.419Z,11.60
2023-03-29T11:46:20.888Z,11.71
2023-03-29T11:48:55.918Z,11.72
2023-03-29T11:51:28.368Z,11.45
2023-03-29T11:54:13.429Z,11.73
2023-03-29T11:56:47.507Z,11.32
2023-03-29T11:59:23.710Z,11.42
2023-03-29T12:02:09.355Z,11.29
2023-03-29T12:04:46.741Z,11.16
2023-03-29T12:07:20.039Z,11.47
2023-03-29T12:09:55.024Z,11.56
2023-03-29T12:12:28.740Z,11.91
2023-03-29T12:15:09.691Z,12.09
2023-03-29T12:17:44.489Z,11.95
2023-03-29T12:20:19.666Z,12.08
2023-03-29T12:22:51.083Z,11.92
2023-03-29T12:25:47.748Z,11.65
2023-03-29T12:28:15.266Z,11.46
2023-03-29T12:31:07.687Z,11.53
2023-03-29T12:34:02.572Z,11.42
2023-03-29T12:37:02.167Z,11.13
2023-03-29T12:39:51.698Z,10.80
2023-03-29T12:43:04.073Z,11.17
2023-03-29T12:46:01.921Z,11.21
2023-03-29T12:48:30.579Z,10.95
2023-03-29T12:51:04.084Z,10.79
2023-03-29T12:53:36.124Z,10.92
2023-03-29T12:56:04.072Z,10.76
2023-03-29T12:58:43.105Z,10.51
2023-03-29T13:01:23.417Z,10.00
2023-03-29T13:03:56.910Z,9.87
2023-03-29T13:06:31.462Z,10.28
2023-03-29T13:09:05.888Z,10.50
2023-03-29T13:11:41.455Z,10.66
2023-03-29T13:14:19.409Z,10.81
2023-03-29T13:16:47.013Z,10.97
2023-03-29T13:19:46.348Z,10.96
2023-03-29T13:22:45.964Z,11.26
2023-03-29T13:25:34.600Z,11.08
2023-03-29T13:28:40.765Z,10.88
2023-03-29T13:31:32.460Z,10.58
2023-03-29T13:34:19.001Z,10.45
2023-03-29T13:36:52.365Z,10.32
2023-03-29T13:39:31.162Z,10.24
2023-03-29T13:42:25.664Z,10.09
2023-03-29T13:44:53.986Z,9.81
2023-03-29T13:47:33.234Z,10.18
2023-03-29T13:50:16.803Z,10.24
2023-03-29T13:52:57.937Z,10.30
2023-03-29T13:55:30.922Z,10.21
2023-03-29T13:58:01.751Z,10.52
2023-03-29T14:00:37.359Z,10.56
2023-03-29T14:03:14.529Z,10.65
2023-03-29T14:05:48.161Z,10.69
2023-03-29T14:08:37.604Z,10.48
2023-03-29T14:11:07.777Z,10.33
2023-03-29T14:13:35.393Z,10.34
2023-03-29T14:16:07.266Z,9.97
2023-03-29T14:18:42.685Z,9.81
2023-03-29T14:21:12.801Z,9.50
2023-03-29T14:23:43.868Z,9.28
2023-03-29T14:26:23.059Z,9.17
2023-03-29T14:28:53.216Z,9.04
2023-03-29T14:31:41.843Z,9.17
2023-03-29T14:34:15.042Z,9.13
2023-03-29T14:36:45.774Z,8.78
2023-03-29T14:39:18.259Z,8.65
2023-03-29T14:41:53.665Z,8.61
2023-03-29T14:44:23.606Z,8.56
2023-03-29T14:46:50.890Z,8.43
2023-03-29T14:49:21.673Z,8.38
2023-03-29T14:51:49.728Z,8.43
2023-03-29T14:54:22.685Z,8.35
2023-03-29T14:56:51.189Z,8.37
2023-03-29T14:59:41.077Z,8.20
2023-03-29T15:02:29.499Z,8.17
2023-03-29T15:05:24.283Z,8.00
2023-03-29T15:07:56.330Z,8.50
2023-03-29T15:10:23.974Z,8.21
2023-03-29T15:12:51.788Z,8.18
2023-03-29T15:15:19.083Z,8.16
2023-03-29T15:17:52.167Z,8.02
2023-03-29T15:20:23.493Z,7.82
2023-03-29T15:22:56.801Z,7.80
2023-03-29T15:25:27.988Z,7.69
2023-03-29T15:28:00.258Z,7.80
2023-03-29T15:30:35.280Z,7.78
2023-03-29T15:33:29.776Z,7.92
2023-03-29T15:35:57.531Z,7.68
2023-03-29T15:38:33.154Z,7.43
2023-03-29T15:41:08.606Z,7.50
2023-03-29T15:43:36.811Z,7.31
2023-03-29T15:46:04.321Z,7.07
2023-03-29T15:48:33.934Z,7.14
2023-03-29T15:51:05.722Z,7.15
2023-03-29T15:53:33.944Z,7.01
2023-03-29T15:56:02.834Z,6.91
2023-03-29T15:58:32.572Z,6.81
2023-03-29T16:01:34.977Z,7.09
2023-03-29T16:04:05.588Z,7.03
2023-03-29T16:06:34.869Z,6.95
2023-03-29T16:09:02.247Z,6.87
2023-03-29T16:11:29.360Z,6.76
2023-03-29T16:13:57.079Z,6.72
2023-03-29T16:16:24.825Z,6.64
2023-03-29T16:18:52.221Z,6.76
2023-03-29T16:21:22.374Z,6.94
2023-03-29T16:23:50.637Z,7.05
2023-03-29T16:26:18.002Z,6.75
2023-03-29T16:28:45.329Z,6.56
2023-03-29T16:31:14.253Z,6.52
2023-03-29T16:33:41.949Z,6.53
2023-03-29T16:36:10.234Z,6.46
2023-03-29T16:38:37.753Z,6.65
2023-03-29T16:41:05.269Z,6.56
2023-03-29T16:43:32.553Z,6.57
2023-03-29T16:45:59.949Z,6.49
2023-03-29T16:48:27.389Z,6.53
2023-03-29T16:50:54.671Z,6.58
2023-03-29T16:53:27.115Z,6.69
2023-03-29T16:55:54.756Z,6.71
2023-03-29T16:58:23.372Z,6.67
2023-03-29T17:00:52.089Z,6.71
2023-03-29T17:03:20.126Z,6.45
2023-03-29T17:05:52.108Z,6.60
2023-03-29T17:08:20.511Z,6.32
2023-03-29T17:10:52.882Z,6.42
2023-03-29T17:13:21.331Z,6.51
2023-03-29T17:15:51.769Z,6.18
2023-03-29T17:18:24.005Z,6.03
2023-03-29T17:20:53.034Z,5.95
2023-03-29T17:23:20.237Z,5.88
2023-03-29T17:25:49.066Z,5.55
2023-03-29T17:28:16.187Z,5.41
2023-03-29T17:30:46.474Z,5.32
2023-03-29T17:33:15.950Z,5.41
2023-03-29T17:35:44.513Z,5.47
2023-03-29T17:38:12.320Z,5.56
2023-03-29T17:40:39.497Z,5.44
2023-03-29T17:43:06.810Z,5.33
2023-03-29T17:45:35.469Z,5.36
2023-03-29T17:48:06.209Z,5.19
2023-03-29T17:50:34.302Z,5.17
2023-03-29T17:53:01.474Z,5.05
2023-03-29T17:55:29.201Z,5.08
2023-03-29T17:57:56.531Z,5.25
2023-03-29T18:00:23.638Z,5.28
2023-03-29T18:02:50.997Z,5.16
2023-03-29T18:05:18.767Z,5.43
2023-03-29T18:07:46.304Z,5.42
2023-03-29T18:10:13.604Z,5.35
2023-03-29T18:12:40.821Z,5.39
2023-03-29T18:15:08.588Z,5.50
2023-03-29T18:17:35.936Z,5.58
2023-03-29T18:20:09.540Z,5.60
2023-03-29T18:22:36.706Z,5.85
2023-03-29T18:25:05.694Z,5.97
2023-03-29T18:27:33.053Z,5.70
2023-03-29T18:30:00.507Z,5.54
2023-03-29T18:32:31.313Z,5.55
2023-03-29T18:34:58.868Z,5.67
2023-03-29T18:37:26.294Z,5.75
2023-03-29T18:39:53.382Z,5.61
2023-03-29T18:42:22.408Z,5.36
2023-03-29T18:44:49.626Z,5.32
2023-03-29T18:47:18.711Z,5.32
2023-03-29T18:49:47.605Z,5.22
2023-03-29T18:52:14.653Z,5.21
2023-03-29T18:54:42.021Z,5.03
2023-03-29T18:57:09.412Z,5.04
2023-03-29T18:59:37.017Z,4.95
2023-03-29T19:02:04.765Z,4.81
2023-03-29T19:04:32.005Z,4.95
2023-03-29T19:07:01.434Z,4.90
2023-03-29T19:09:28.916Z,4.96
2023-03-29T19:11:58.069Z,4.86
2023-03-29T19:14:25.540Z,4.68
2023-03-29T19:16:53.395Z,4.74
2023-03-29T19:19:23.373Z,4.90
2023-03-29T19:21:50.480Z,4.95
2023-03-29T19:24:18.160Z,4.92
2023-03-29T19:26:48.722Z,4.94
2023-03-29T19:29:15.934Z,5.03
2023-03-29T19:31:43.172Z,5.00
2023-03-29T19:34:11.432Z,5.16
2023-03-29T19:36:39.004Z,4.97
2023-03-29T19:39:07.287Z,4.98
2023-03-29T19:41:34.502Z,4.96
2023-03-29T19:44:01.908Z,5.21
2023-03-29T19:46:29.824Z,5.32
2023-03-29T19:48:58.488Z,5.29
2023-03-29T19:51:29.979Z,5.31
2023-03-29T19:53:57.649Z,5.19
2023-03-29T19:56:26.658Z,5.07
2023-03-29T19:58:54.310Z,4.99
2023-03-29T20:01:22.054Z,5.00
2023-03-29T20:03:49.857Z,4.93
2023-03-29T20:06:18.203Z,5.05
2023-03-29T20:08:45.892Z,5.02
2023-03-29T20:11:15.099Z,4.90
2023-03-29T20:13:45.315Z,4.72
2023-03-29T20:16:16.131Z,4.71
2023-03-29T20:18:46.710Z,4.68
2023-03-29T20:21:16.702Z,4.94
2023-03-29T20:23:44.893Z,4.92
2023-03-29T20:26:12.068Z,4.87
2023-03-29T20:28:39.419Z,4.83
2023-03-29T20:31:11.404Z,4.88
2023-03-29T20:33:39.488Z,4.83
2023-03-29T20:36:06.906Z,4.98
2023-03-29T20:38:35.472Z,4.90
2023-03-29T20:41:04.791Z,4.88
2023-03-29T20:43:37.661Z,4.78
2023-03-29T20:46:06.079Z,4.98
2023-03-29T20:48:33.477Z,4.78
2023-03-29T20:51:03.357Z,4.83
2023-03-29T20:53:34.570Z,5.16
2023-03-29T20:56:03.447Z,5.15
2023-03-29T20:58:30.764Z,4.92
2023-03-29T21:00:58.996Z,4.90
2023-03-29T21:03:26.301Z,4.89
2023-03-29T21:05:55.241Z,4.88
2023-03-29T21:08:22.334Z,4.88
2023-03-29T21:10:49.490Z,4.73
2023-03-29T21:13:18.209Z,4.85
2023-03-29T21:15:46.657Z,4.91
2023-03-29T21:18:14.154Z,4.81
2023-03-29T21:20:42.104Z,4.89
2023-03-29T21:23:09.210Z,4.88
2023-03-29T21:25:37.366Z,4.81
2023-03-29T21:28:04.526Z,4.86
2023-03-29T21:30:32.263Z,5.09
2023-03-29T21:33:00.615Z,5.06
2023-03-29T21:35:28.320Z,5.11
2023-03-29T21:37:55.565Z,4.93
2023-03-29T21:40:23.046Z,5.00
2023-03-29T21:42:50.497Z,5.04
2023-03-29T21:45:17.708Z,5.22
2023-03-29T21:47:45.045Z,5.14
2023-03-29T21:50:12.244Z,5.02
2023-03-29T21:52:39.283Z,5.04
2023-03-29T21:55:06.679Z,5.18
2023-03-29T21:57:33.760Z,5.13
2023-03-29T22:00:00.950Z,5.17
2023-03-29T22:02:30.146Z,5.15
2023-03-29T22:04:57.335Z,5.02
2023-03-29T22:07:24.339Z,4.65
2023-03-29T22:09:51.467Z,4.65
2023-03-29T22:12:18.900Z,4.58
2023-03-29T22:14:46.083Z,4.71
2023-03-29T22:17:13.759Z,4.48
2023-03-29T22:19:41.878Z,4.68
2023-03-29T22:22:13.731Z,4.72
2023-03-29T22:24:42.339Z,4.67
2023-03-29T22:27:10.780Z,4.68
2023-03-29T22:29:37.958Z,4.70
2023-03-29T22:32:06.188Z,4.73
2023-03-29T22:34:33.574Z,4.78
2023-03-29T22:37:00.914Z,4.69
2023-03-29T22:39:28.624Z,4.75
2023-03-29T22:41:56.147Z,4.72
2023-03-29T22:44:23.769Z,4.87
2023-03-29T22:46:51.761Z,4.74
2023-03-29T22:49:19.815Z,4.61
2023-03-29T22:51:47.143Z,4.69
2023-03-29T22:54:14.289Z,4.72
2023-03-29T22:56:41.440Z,4.54
2023-03-29T22:59:08.923Z,4.40
2023-03-29T23:01:36.082Z,4.43
2023-03-29T23:04:04.358Z,4.45
2023-03-29T23:06:31.739Z,4.51
2023-03-29T23:08:58.906Z,4.57
2023-03-29T23:11:26.583Z,4.58
2023-03-29T23:13:56.732Z,4.43
2023-03-29T23:16:25.527Z,4.52
2023-03-29T23:18:52.604Z,4.48
2023-03-29T23:21:19.719Z,4.52
2023-03-29T23:23:46.956Z,4.21
2023-03-29T23:26:14.166Z,4.55
2023-03-29T23:28:41.296Z,4.53
2023-03-29T23:31:11.682Z,4.53
2023-03-29T23:33:41.405Z,4.40
2023-03-29T23:36:14.029Z,4.34
2023-03-29T23:38:42.515Z,4.23
2023-03-29T23:41:12.883Z,4.34
2023-03-29T23:43:42.194Z,4.13
2023-03-29T23:46:17.481Z,4.27
2023-03-29T23:48:46.222Z,4.41
2023-03-29T23:51:13.516Z,4.43
2023-03-29T23:53:41.394Z,4.33
2023-03-29T23:56:09.257Z,4.35
2023-03-29T23:58:37.910Z,4.39
